M I D A S
Marine Information and Data Acquisition System
Tripno 1744 of the Zeeleeuw from 2009-08-03 06:53:44 to 2009-08-03 07:55:47
Back to CruiseResearch ActivitiesStationsMapUnderway DataData graphs

EquipmentUnitsComments
TimeDGPSUTC
LatitudeDGPSDM.mWGS84
LongitudeDGPSDM.mWGS84
SpeedMeteo Stationm/sRelative wind speed
DirectionMeteo StationdegRelative wind direction
TemperatureMeteo Stationdeg CelciusAir temperature
PressureMeteo StationPaAtmospheric pressure
HumidityMeteo Station%Relative humidity
Missing or incorrect values are displayed as -999
Metereological data collected by the RV Zeeleeuw from 2009-08-03 06:53:03 to 2009-08-03 08:01:03
Time Latitude Longitude Speed Direction Temperature Pressure Humidity
2009-08-03 06:54 51°15.071 2°51.564 11 23 15.1 101590 52
2009-08-03 06:55 51°15.116 2°51.258 11.7 28 15.1 101580 53
2009-08-03 06:56 51°15.174 2°50.958 11.6 21 15.1 101580 54
2009-08-03 06:57 51°15.231 2°50.656 10.8 24 15.2 101580 53
2009-08-03 06:58 51°15.286 2°50.353 10 23 15.2 101580 54
2009-08-03 06:59 51°15.342 2°50.057 11.8 24 15.2 101580 53
2009-08-03 07:00 51°15.402 2°49.753 10.7 20 15.4 101580 55
2009-08-03 07:01 51°15.46 2°49.455 13.2 316 15.4 101580 54
2009-08-03 07:02 51°15.518 2°49.158 12.4 20 15.5 101580 52
2009-08-03 07:03 51°15.574 2°48.863 11.4 24 15.5 101580 54
2009-08-03 07:04 51°15.629 2°48.573 10.4 315 15.6 101590 53
2009-08-03 07:05 51°15.686 2°48.272 9.6 29 15.6 101590 54
2009-08-03 07:06 51°15.742 2°47.973 11.6 27 15.7 101580 53
2009-08-03 07:07 51°15.798 2°47.673 10.1 317 15.7 101590 53
2009-08-03 07:08 51°15.852 2°47.372 11.6 24 15.7 101590 53
2009-08-03 07:09 51°15.908 2°47.078 12.3 317 15.7 101590 54
2009-08-03 07:10 51°15.966 2°46.775 9.8 28 15.7 101590 54
2009-08-03 07:11 51°16.024 2°46.479 11.6 316 15.8 101590 55
2009-08-03 07:12 51°16.083 2°46.188 11.2 316 15.8 101590 54
2009-08-03 07:13 51°16.163 2°45.915 11.2 24 15.9 101590 54
2009-08-03 07:14 51°16.248 2°45.651 9.4 28 15.8 101590 53
2009-08-03 07:15 51°16.331 2°45.376 11.3 21 15.9 101590 54
2009-08-03 07:16 51°16.408 2°45.102 9.9 21 15.9 101580 55
2009-08-03 07:17 51°16.487 2°44.828 11.1 24 15.9 101590 53
2009-08-03 07:18 51°16.567 2°44.551 9.6 23 15.9 101580 54
2009-08-03 07:19 51°16.645 2°44.274 9.6 25 16 101590 54
2009-08-03 07:20 51°16.723 2°43.994 10.6 24 16 101580 55
2009-08-03 07:21 51°16.797 2°43.712 9.9 316 16 101580 53
2009-08-03 07:22 51°16.881 2°43.438 10.4 27 16 101580 54
2009-08-03 07:23 51°16.975 2°43.173 11 24 16 101580 53
2009-08-03 07:24 51°17.071 2°42.906 10.7 23 16.1 101580 55
2009-08-03 07:25 51°17.165 2°42.646 8.9 23 16.1 101580 53
2009-08-03 07:26 51°17.262 2°42.372 12.4 316 16.1 101580 54
2009-08-03 07:27 51°17.358 2°42.103 11.1 20 16.1 101580 54
2009-08-03 07:28 51°17.44 2°41.824 10.6 318 16.1 101580 54
2009-08-03 07:29 51°17.497 2°41.526 10.1 320 16.2 101580 54
2009-08-03 07:30 51°17.543 2°41.221 11.9 321 16.3 101580 54
2009-08-03 07:31 51°17.588 2°40.922 12.3 316 16.3 101580 54
2009-08-03 07:32 51°17.635 2°40.613 11.3 316 16.4 101580 53
2009-08-03 07:33 51°17.683 2°40.31 12.2 316 16.4 101580 52
2009-08-03 07:34 51°17.735 2°40.01 11.7 316 16.4 101570 52
2009-08-03 07:35 51°17.786 2°39.713 12.5 316 16.4 101580 52
2009-08-03 07:36 51°17.842 2°39.41 12.7 316 16.5 101580 54
2009-08-03 07:37 51°17.897 2°39.112 12.8 30 16.4 101580 52
2009-08-03 07:38 51°17.952 2°38.814 12 27 16.4 101580 54
2009-08-03 07:39 51°18.004 2°38.521 12.4 317 16.3 101580 54
2009-08-03 07:40 51°18.056 2°38.216 10.2 28 16.2 101580 53
2009-08-03 07:41 51°18.104 2°37.915 12.3 316 16.3 101580 53
2009-08-03 07:42 51°18.124 2°37.602 12.5 318 16.3 101590 53
2009-08-03 07:43 51°18.14 2°37.288 10.3 317 16.3 101580 54
2009-08-03 07:44 51°18.155 2°36.981 10.3 320 16.3 101590 54
2009-08-03 07:45 51°18.175 2°36.664 13 319 16.3 101590 53
2009-08-03 07:46 51°18.196 2°36.354 10.8 319 16.3 101590 54
2009-08-03 07:47 51°18.222 2°36.043 9.8 320 16.4 101590 53
2009-08-03 07:48 51°18.247 2°35.731 12.7 319 16.3 101590 54
2009-08-03 07:49 51°18.272 2°35.424 10.9 320 16.4 101590 54
2009-08-03 07:50 51°18.3 2°35.108 12.9 323 16.2 101590 51
2009-08-03 07:51 51°18.327 2°34.796 14.2 23 16.4 101580 53
2009-08-03 07:52 51°18.351 2°34.49 10.9 321 16.5 101590 53
2009-08-03 07:53 51°18.376 2°34.174 10.6 319 16.3 101590 51
2009-08-03 07:54 51°18.402 2°33.864 13.3 323 16.3 101590 51
2009-08-03 07:55 51°18.43 2°33.554 10.8 322 16.4 101590 51
2009-08-03 07:56 51°18.455 2°33.252 12.7 324 16.5 101600 50
2009-08-03 07:57 51°18.482 2°32.94 10.5 321 16.5 101590 49
2009-08-03 07:58 51°18.506 2°32.633 12.7 323 16.5 101590 48
2009-08-03 07:59 51°18.529 2°32.324 13.5 322 16.6 101590 50
2009-08-03 08:00 51°18.554 2°32.016 13.2 323 16.6 101600 50